Iwo, Nigeria
Current Conditions -  °F | °C
As of 11:00 PM on Sunday 23 Nov 2014 (Local Time) from DNMM Reporting Station
Few Clouds Few Clouds  
Wind Chill: 81°   Ceiling: Unl
Heat Index: 88°   Visibility: 5mi
Dew Point: 79°   Wind: 2mph
Humidity: 94%   Direction: NA
Pressure: 29.88"   Gusts: NA
Location:  7.63°N, 4.18°E
Report Text: DNMM 232200Z VRB02KT 8000 FEW011 27/26 Q1012 NOSIG
Loading
Personal Weather Stations






























Interactive Weather Map New forecast layout! Learn more

10-Day Weather Forecast

Advertisements
Track Severe Weather on mobile